Time;durP1;ratioP1;P1;durP2;ratioP2;P2;SDS_P1;SDS_P2;PMS_P1;PMS_P2;Temp;Humidity;BMP_temperature;BMP_pressure;BME280_temperature;BME280_humidity;BME280_pressure;Samples;Min_cycle;Max_cycle;Signal;HPM_P1;HPM_P2
2022/11/01 00:01:43;;;;;;;5.23;3.53;;;18.50;99.90;;;;;;4935003;29;20607;-82
2022/11/01 00:04:09;;;;;;;7.20;3.80;;;18.50;99.90;;;;;;4918806;29;20201;-83
2022/11/01 00:06:35;;;;;;;4.33;3.17;;;18.50;99.90;;;;;;4907422;29;21015;-82
2022/11/01 00:09:02;;;;;;;5.43;3.43;;;18.60;99.90;;;;;;4917879;29;20224;-82
2022/11/01 00:11:28;;;;;;;5.87;3.90;;;18.60;99.90;;;;;;4917917;29;20629;-82
2022/11/01 00:13:54;;;;;;;7.33;2.87;;;18.70;99.90;;;;;;4934710;29;20600;-82
2022/11/01 00:16:21;;;;;;;6.53;4.10;;;18.70;99.90;;;;;;4934632;29;20252;-83
2022/11/01 00:18:46;;;;;;;5.07;2.43;;;18.80;99.90;;;;;;4935266;29;20173;-82
2022/11/01 00:21:13;;;;;;;6.60;3.73;;;18.90;99.90;;;;;;4917444;29;20588;-82
2022/11/01 00:23:39;;;;;;;8.37;3.30;;;18.90;99.90;;;;;;4935053;29;20188;-82
2022/11/01 00:26:05;;;;;;;7.30;3.20;;;18.90;99.90;;;;;;4941149;29;21126;-83
2022/11/01 00:28:32;;;;;;;6.27;2.97;;;19.00;99.90;;;;;;4901600;29;20592;-82
2022/11/01 00:30:58;;;;;;;7.53;3.40;;;19.00;99.90;;;;;;4934502;29;20624;-88
2022/11/01 00:33:25;;;;;;;9.87;2.60;;;19.00;99.90;;;;;;4934219;29;20612;-83
2022/11/01 00:35:51;;;;;;;6.33;3.80;;;19.00;99.90;;;;;;4917335;29;20570;-83
2022/11/01 00:38:18;;;;;;;7.63;4.03;;;19.00;99.90;;;;;;4917587;29;20596;-83
2022/11/01 00:40:44;;;;;;;9.23;4.30;;;19.00;99.90;;;;;;4934507;29;20583;-83
2022/11/01 00:43:11;;;;;;;13.00;7.33;;;18.90;99.90;;;;;;4922047;29;20616;-83
2022/11/01 00:45:36;;;;;;;9.57;6.00;;;19.00;99.90;;;;;;4934149;29;20627;-83
2022/11/01 00:48:03;;;;;;;7.10;5.33;;;18.90;99.90;;;;;;4917229;29;20672;-84
2022/11/01 00:50:28;;;;;;;10.17;3.77;;;18.90;99.90;;;;;;4934244;29;20201;-84
2022/11/01 00:52:54;;;;;;;7.93;3.13;;;18.90;99.90;;;;;;4916743;29;20608;-84
2022/11/01 00:55:20;;;;;;;5.60;3.47;;;18.90;99.90;;;;;;4917574;29;20173;-84
2022/11/01 00:57:46;;;;;;;5.30;3.57;;;18.80;99.90;;;;;;4922325;29;20180;-83
2022/11/01 01:00:13;;;;;;;8.13;3.83;;;18.70;99.90;;;;;;4933271;29;20584;-84
2022/11/01 01:02:40;;;;;;;6.47;3.57;;;18.60;99.90;;;;;;4933960;29;20271;-85
2022/11/01 01:05:06;;;;;;;4.93;2.97;;;18.50;99.90;;;;;;4917676;29;20607;-84
2022/11/01 01:07:32;;;;;;;5.20;3.30;;;18.50;99.90;;;;;;4934422;29;20584;-84
2022/11/01 01:09:58;;;;;;;8.27;3.30;;;18.40;99.90;;;;;;4917448;29;20965;-85
2022/11/01 01:12:24;;;;;;;6.03;3.50;;;18.40;99.90;;;;;;4933086;29;20720;-84
2022/11/01 01:14:50;;;;;;;7.47;4.17;;;18.30;99.90;;;;;;4934500;29;20201;-84
2022/11/01 01:17:17;;;;;;;8.50;4.43;;;18.20;99.90;;;;;;4917146;29;20197;-84
2022/11/01 01:19:43;;;;;;;7.07;4.70;;;18.20;99.90;;;;;;4938886;29;20572;-83
2022/11/01 01:22:08;;;;;;;7.00;3.83;;;18.20;99.90;;;;;;4916439;29;20580;-83
2022/11/01 01:24:34;;;;;;;8.97;4.03;;;18.20;99.90;;;;;;4933664;29;20232;-83
2022/11/01 01:27:00;;;;;;;7.03;3.57;;;18.10;99.90;;;;;;4917382;29;20196;-83
2022/11/01 01:29:26;;;;;;;4.60;3.03;;;18.10;99.90;;;;;;4920645;29;20264;-84
2022/11/01 01:31:52;;;;;;;6.33;3.40;;;18.10;99.90;;;;;;4920350;29;21318;-84
2022/11/01 01:34:18;;;;;;;3.90;3.10;;;18.10;99.90;;;;;;4919987;29;20197;-84
2022/11/01 01:36:45;;;;;;;7.10;4.10;;;18.10;99.90;;;;;;4936298;29;20191;-84
2022/11/01 01:39:11;;;;;;;5.50;3.87;;;18.10;99.90;;;;;;4904504;29;20596;-84
2022/11/01 01:41:55;;;;;;;6.30;3.70;;;18.10;99.90;;;;;;4937277;29;21128;-84
2022/11/01 01:45:00;;;;;;;5.00;3.70;;;18.10;99.90;;;;;;4936072;29;20204;-84
2022/11/01 01:47:38;;;;;;;6.67;3.20;;;18.10;99.90;;;;;;4936607;29;20580;-84
2022/11/01 01:50:07;;;;;;;9.27;3.90;;;18.20;99.90;;;;;;4904088;29;20580;-84
2022/11/01 01:52:43;;;;;;;9.43;3.23;;;18.20;99.90;;;;;;4936847;29;20604;-84
2022/11/01 01:55:11;;;;;;;6.10;3.33;;;18.20;99.90;;;;;;4937624;29;21158;-85
2022/11/01 01:57:39;;;;;;;7.53;2.70;;;18.20;99.90;;;;;;4942381;29;20975;-84
2022/11/01 02:00:06;;;;;;;5.23;2.80;;;18.30;99.90;;;;;;4935706;29;20573;-83
2022/11/01 02:02:37;;;;;;;6.07;2.53;;;18.40;99.90;;;;;;4936563;29;20647;-83
2022/11/01 02:05:20;;;;;;;6.00;2.40;;;18.40;99.90;;;;;;4919613;29;20569;-83
2022/11/01 02:07:47;;;;;;;6.07;3.37;;;18.40;99.90;;;;;;4936841;29;20568;-84
2022/11/01 02:10:14;;;;;;;4.07;2.23;;;18.50;99.90;;;;;;4936426;29;20569;-83
2022/11/01 02:12:45;;;;;;;4.20;2.50;;;18.60;99.90;;;;;;4936211;29;20923;-84
2022/11/01 02:15:12;;;;;;;4.43;2.07;;;18.70;99.90;;;;;;4903841;29;20581;-84
2022/11/01 02:17:57;;;;;;;5.70;2.07;;;18.70;99.90;;;;;;4919300;29;20644;-83
2022/11/01 02:20:36;;;;;;;6.03;2.53;;;18.80;99.90;;;;;;4936438;29;20605;-83
2022/11/01 02:23:23;;;;;;;5.93;2.37;;;18.80;99.90;;;;;;4936143;29;20601;-83
2022/11/01 02:26:21;;;;;;;3.90;2.03;;;18.90;99.90;;;;;;4936485;29;20604;-83
2022/11/01 02:29:22;;;;;;;3.37;1.50;;;18.90;99.90;;;;;;4890424;29;20619;-83
2022/11/01 02:32:00;;;;;;;3.40;2.43;;;19.00;99.90;;;;;;4906777;29;20643;-83
2022/11/01 02:34:39;;;;;;;4.00;2.40;;;19.00;99.90;;;;;;4924920;29;20557;-83
2022/11/01 02:37:11;;;;;;;4.13;2.40;;;19.00;99.90;;;;;;4903474;29;20573;-83
2022/11/01 02:39:45;;;;;;;4.60;2.03;;;18.90;99.90;;;;;;4935556;29;20570;-83
2022/11/01 02:42:18;;;;;;;4.00;1.97;;;18.90;99.90;;;;;;4902966;29;20643;-82
2022/11/01 02:44:51;;;;;;;3.47;1.77;;;19.00;99.90;;;;;;4936017;29;20584;-84
2022/11/01 02:47:17;;;;;;;6.67;2.30;;;18.90;99.90;;;;;;4918874;29;20573;-84
2022/11/01 02:49:46;;;;;;;4.27;2.90;;;19.00;99.90;;;;;;4909607;29;20620;-84
2022/11/01 02:52:16;;;;;;;4.40;2.60;;;19.00;99.90;;;;;;4954624;28;21202;-84
2022/11/01 02:54:48;;;;;;;2.87;1.40;;;19.00;99.90;;;;;;4954919;29;20694;-85
2022/11/01 02:57:25;;;;;;;5.23;2.30;;;19.00;99.90;;;;;;4953710;29;20572;-85
2022/11/01 02:59:51;;;;;;;4.87;2.10;;;19.00;99.90;;;;;;4955002;29;20587;-85
2022/11/01 03:02:39;;;;;;;4.10;1.73;;;19.00;99.90;;;;;;4954568;28;20595;-85
2022/11/01 03:05:45;;;;;;;4.33;1.50;;;19.00;99.90;;;;;;4937940;29;20686;-85
2022/11/01 03:08:15;;;;;;;4.07;1.50;;;19.00;99.90;;;;;;4932782;29;20608;-84
2022/11/01 03:11:24;;;;;;;4.13;1.77;;;19.10;99.90;;;;;;4959830;29;20710;-84
2022/11/01 03:14:12;;;;;;;3.47;1.63;;;19.10;99.90;;;;;;4924611;29;20620;-85
2022/11/01 03:17:09;;;;;;;4.40;2.40;;;19.20;99.90;;;;;;4937370;29;20584;-85
2022/11/01 03:19:51;;;;;;;4.90;1.60;;;19.20;99.90;;;;;;4954639;29;20568;-85
2022/11/01 03:22:16;;;;;;;2.93;1.30;;;19.20;99.90;;;;;;4954204;28;20941;-84
2022/11/01 03:25:37;;;;;;;5.73;1.70;;;19.20;99.90;;;;;;4954516;29;20568;-85
2022/11/01 03:28:12;;;;;;;3.67;1.97;;;19.20;99.90;;;;;;4954272;29;20196;-84
2022/11/01 03:30:43;;;;;;;3.77;1.93;;;19.30;99.90;;;;;;4954396;29;20623;-84
2022/11/01 03:33:12;;;;;;;3.40;1.70;;;19.30;99.90;;;;;;4954224;28;21162;-84
2022/11/01 03:35:41;;;;;;;3.07;1.37;;;19.30;99.90;;;;;;4953084;29;20568;-84
2022/11/01 03:38:12;;;;;;;3.70;1.33;;;19.40;99.90;;;;;;4954399;29;20636;-83
2022/11/01 03:40:43;;;;;;;4.20;1.90;;;19.40;99.90;;;;;;4954339;29;20997;-83
2022/11/01 03:43:12;;;;;;;3.50;1.90;;;19.40;99.90;;;;;;4953728;28;20615;-83
2022/11/01 03:45:39;;;;;;;3.03;1.73;;;19.40;99.90;;;;;;4942135;29;20604;-83
2022/11/01 03:48:06;;;;;;;5.07;2.27;;;19.40;99.90;;;;;;4960613;29;20588;-84
2022/11/01 03:50:32;;;;;;;3.20;1.73;;;19.40;99.90;;;;;;4953530;28;20727;-84
2022/11/01 03:52:57;;;;;;;5.37;1.73;;;19.40;99.90;;;;;;4954093;28;21002;-84
2022/11/01 03:55:24;;;;;;;4.03;1.87;;;19.40;99.90;;;;;;4937639;29;20572;-84
2022/11/01 03:57:51;;;;;;;3.73;1.97;;;19.50;99.90;;;;;;4953873;29;20219;-84
2022/11/01 04:00:39;;;;;;;3.80;1.80;;;19.40;99.90;;;;;;4953948;29;20654;-84
2022/11/01 04:03:05;;;;;;;4.53;1.73;;;19.40;99.90;;;;;;4952019;29;20658;-83
2022/11/01 04:05:32;;;;;;;5.77;1.97;;;19.50;99.90;;;;;;4953937;29;20571;-84
2022/11/01 04:07:58;;;;;;;5.37;1.33;;;19.50;99.90;;;;;;4953553;29;20947;-83
2022/11/01 04:10:26;;;;;;;3.00;1.43;;;19.50;99.90;;;;;;4953682;29;20572;-83
2022/11/01 04:12:52;;;;;;;3.40;1.43;;;19.50;99.90;;;;;;4936273;29;20189;-84
2022/11/01 04:21:03;;;;;;;4.13;1.53;;;19.50;99.90;;;;;;4953763;29;20587;-83
2022/11/01 04:23:29;;;;;;;5.57;2.00;;;19.50;99.90;;;;;;4953058;29;21206;-83
2022/11/01 04:25:55;;;;;;;3.93;1.60;;;19.50;99.90;;;;;;4957779;29;20587;-83
2022/11/01 04:28:20;;;;;;;8.50;1.73;;;19.50;99.90;;;;;;4953607;29;20172;-83
2022/11/01 04:30:46;;;;;;;5.07;1.40;;;19.40;99.90;;;;;;4936292;29;20348;-83
2022/11/01 04:33:12;;;;;;;4.97;1.90;;;19.40;99.90;;;;;;4951760;28;20267;-83
2022/11/01 04:35:38;;;;;;;4.17;1.90;;;19.40;99.90;;;;;;4936003;29;20639;-83
2022/11/01 04:38:04;;;;;;;6.10;2.20;;;19.40;99.90;;;;;;4953676;29;20179;-83
2022/11/01 04:40:33;;;;;;;3.00;1.67;;;19.40;99.90;;;;;;4936256;29;20586;-83
2022/11/01 04:42:59;;;;;;;3.73;1.30;;;19.40;99.90;;;;;;4952833;28;20659;-83
2022/11/01 04:45:24;;;;;;;3.37;1.70;;;19.40;99.90;;;;;;4936605;29;21144;-76
2022/11/01 04:48:08;;;;;;;4.33;1.70;;;19.40;99.90;;;;;;4953328;29;20172;-76
2022/11/01 04:50:34;;;;;;;3.60;1.70;;;19.40;99.90;;;;;;4952116;29;20208;-76
2022/11/01 04:53:01;;;;;;;4.43;2.53;;;19.30;99.90;;;;;;4935449;29;20607;-76
2022/11/01 04:55:28;;;;;;;3.20;1.47;;;19.40;99.90;;;;;;4953361;29;20630;-76
2022/11/01 04:57:54;;;;;;;3.97;1.20;;;19.40;99.90;;;;;;4953093;29;20576;-76
2022/11/01 05:00:21;;;;;;;2.73;1.70;;;19.40;99.90;;;;;;4952260;29;20568;-76
2022/11/01 05:02:48;;;;;;;4.43;1.60;;;19.40;99.90;;;;;;4940147;29;20196;-76
2022/11/01 05:05:14;;;;;;;6.83;1.70;;;19.40;99.90;;;;;;4956839;29;20564;-76
2022/11/01 05:07:40;;;;;;;3.20;1.50;;;19.40;99.90;;;;;;4939685;29;20584;-76
2022/11/01 05:10:07;;;;;;;3.23;1.67;;;19.30;99.90;;;;;;4956930;29;20659;-76
2022/11/01 05:12:33;;;;;;;2.20;1.50;;;19.30;99.90;;;;;;4956243;28;20212;-76
2022/11/01 05:14:59;;;;;;;5.03;1.63;;;19.30;99.90;;;;;;4956586;29;20647;-76
2022/11/01 05:17:25;;;;;;;4.07;2.50;;;19.30;99.90;;;;;;4956367;29;20567;-76
2022/11/01 05:19:50;;;;;;;3.93;1.50;;;19.30;99.90;;;;;;4956725;29;20223;-76
2022/11/01 05:22:16;;;;;;;3.40;1.30;;;19.30;99.90;;;;;;4956120;28;20169;-76
2022/11/01 05:24:42;;;;;;;2.33;1.40;;;19.20;99.90;;;;;;4956634;29;20180;-76
2022/11/01 05:27:08;;;;;;;2.60;1.50;;;19.20;99.90;;;;;;4956483;29;20568;-76
2022/11/01 05:29:34;;;;;;;3.33;1.97;;;19.20;99.90;;;;;;4956332;29;20572;-76
2022/11/01 05:32:00;;;;;;;4.20;1.57;;;19.20;99.90;;;;;;4955797;29;20230;-76
2022/11/01 05:34:26;;;;;;;2.90;1.50;;;19.10;99.90;;;;;;4939164;29;20576;-76
2022/11/01 05:36:52;;;;;;;2.70;1.67;;;19.10;99.90;;;;;;4955313;29;20583;-76
2022/11/01 05:39:18;;;;;;;3.00;1.20;;;19.00;99.90;;;;;;4961426;29;20297;-76
2022/11/01 05:41:44;;;;;;;3.37;1.77;;;19.00;99.90;;;;;;4955978;29;20584;-77
2022/11/01 05:44:10;;;;;;;3.43;1.20;;;18.90;99.90;;;;;;4955465;28;20611;-76
2022/11/01 05:46:36;;;;;;;2.17;1.20;;;18.90;99.90;;;;;;4956145;29;20185;-76
2022/11/01 05:49:01;;;;;;;2.80;0.97;;;18.90;99.90;;;;;;4955970;29;20571;-76
2022/11/01 05:51:27;;;;;;;5.37;1.23;;;18.90;99.90;;;;;;4954606;29;21026;-76
2022/11/01 05:53:53;;;;;;;3.83;1.40;;;18.90;99.90;;;;;;4950341;28;20196;-76
2022/11/01 05:56:19;;;;;;;3.87;1.30;;;18.90;99.90;;;;;;4963760;28;20165;-76
2022/11/01 05:58:46;;;;;;;2.60;1.50;;;18.90;99.90;;;;;;4955933;29;20219;-76
2022/11/01 06:01:12;;;;;;;3.33;1.20;;;18.90;99.90;;;;;;4950035;29;20181;-76
2022/11/01 06:03:38;;;;;;;3.43;1.27;;;18.90;99.90;;;;;;4974199;28;20680;-76
2022/11/01 06:06:03;;;;;;;1.70;0.80;;;18.90;99.90;;;;;;4972262;29;20185;-76
2022/11/01 06:08:30;;;;;;;4.20;1.03;;;18.90;99.90;;;;;;4972277;29;20575;-76
2022/11/01 06:11:05;;;;;;;2.47;1.00;;;18.90;99.90;;;;;;4972645;29;20204;-75
2022/11/01 06:13:31;;;;;;;1.80;0.80;;;18.90;99.90;;;;;;4983214;28;20611;-75
2022/11/01 06:16:02;;;;;;;2.00;1.00;;;18.90;99.90;;;;;;4989714;28;20606;-75
2022/11/01 06:18:28;;;;;;;3.93;0.90;;;18.90;99.90;;;;;;4981049;28;20769;-76
2022/11/01 06:20:55;;;;;;;3.00;0.93;;;18.90;99.90;;;;;;4975144;28;20575;-76
2022/11/01 06:23:21;;;;;;;4.27;1.93;;;18.90;99.90;;;;;;4974585;28;21068;-75
2022/11/01 06:25:47;;;;;;;1.50;0.80;;;18.90;99.90;;;;;;4957635;28;20582;-76
2022/11/01 06:28:13;;;;;;;2.50;0.83;;;18.90;99.90;;;;;;4974994;28;20974;-76
2022/11/01 06:30:38;;;;;;;2.07;0.90;;;18.90;99.90;;;;;;4974935;28;20549;-76
2022/11/01 06:33:05;;;;;;;2.77;0.93;;;18.90;99.90;;;;;;4974451;28;20187;-76
2022/11/01 06:35:32;;;;;;;1.60;1.00;;;18.80;99.90;;;;;;4957426;28;20172;-77
2022/11/01 06:38:05;;;;;;;1.57;0.60;;;18.80;99.90;;;;;;4971567;28;20613;-76
2022/11/01 06:40:35;;;;;;;2.27;0.80;;;18.80;99.90;;;;;;4953211;29;20640;-76
2022/11/01 06:43:04;;;;;;;1.80;0.80;;;18.80;99.90;;;;;;4943806;29;20629;-76
2022/11/01 06:45:31;;;;;;;2.03;0.63;;;18.70;99.90;;;;;;4936130;29;20573;-76
2022/11/01 06:47:59;;;;;;;3.53;0.90;;;18.70;99.90;;;;;;4935810;29;20608;-76
2022/11/01 06:50:27;;;;;;;1.63;0.70;;;18.70;99.90;;;;;;4938301;29;20992;-76
2022/11/01 06:52:57;;;;;;;2.10;0.70;;;18.70;99.90;;;;;;4934193;29;20639;-77
2022/11/01 06:55:27;;;;;;;3.63;1.10;;;18.70;99.90;;;;;;4954986;29;20168;-77
2022/11/01 06:57:58;;;;;;;2.23;0.60;;;18.70;99.90;;;;;;4965896;28;21123;-76
2022/11/01 07:00:25;;;;;;;3.73;1.50;;;18.60;99.90;;;;;;4953986;28;20587;-76
2022/11/01 07:03:00;;;;;;;2.50;0.93;;;18.60;99.90;;;;;;4934873;29;20604;-76
2022/11/01 07:05:29;;;;;;;1.57;0.70;;;18.60;99.90;;;;;;4949730;28;20674;-76
2022/11/01 07:07:55;;;;;;;3.90;0.60;;;18.60;99.90;;;;;;4957719;28;20580;-76
2022/11/01 07:10:23;;;;;;;2.47;0.60;;;18.50;99.90;;;;;;4937349;29;20583;-76
2022/11/01 07:12:48;;;;;;;2.53;0.60;;;18.50;99.90;;;;;;4948021;28;20643;-76
2022/11/01 07:15:14;;;;;;;1.60;0.60;;;18.50;99.90;;;;;;4937934;29;20225;-75
2022/11/01 07:17:40;;;;;;;2.23;0.60;;;18.50;99.90;;;;;;4953208;29;20212;-75
2022/11/01 07:20:09;;;;;;;2.00;0.70;;;18.50;99.90;;;;;;4947235;29;20177;-75
2022/11/01 07:22:37;;;;;;;3.00;0.70;;;18.50;99.90;;;;;;4932916;29;20597;-74
2022/11/01 07:25:04;;;;;;;1.93;0.60;;;18.40;99.90;;;;;;4934506;29;20568;-75
2022/11/01 07:27:35;;;;;;;2.97;1.20;;;18.30;99.90;;;;;;4935724;29;20177;-74
2022/11/01 07:30:23;;;;;;;2.80;0.80;;;18.30;99.90;;;;;;4934536;29;21293;-75
2022/11/01 07:33:03;;;;;;;2.43;0.57;;;18.20;99.90;;;;;;4936503;28;21224;-76
2022/11/01 07:35:33;;;;;;;3.93;0.60;;;18.10;99.90;;;;;;4949728;29;20580;-73
2022/11/01 07:38:00;;;;;;;2.37;0.63;;;18.10;99.90;;;;;;4948483;28;20627;-73
2022/11/01 07:40:27;;;;;;;1.97;0.60;;;18.00;99.90;;;;;;4949871;28;20591;-74
2022/11/01 07:42:58;;;;;;;2.60;0.60;;;17.90;99.90;;;;;;4958906;28;20663;-74
2022/11/01 07:45:26;;;;;;;1.60;0.60;;;17.90;99.90;;;;;;4948696;28;20615;-74
2022/11/01 07:47:52;;;;;;;3.83;0.80;;;17.80;99.90;;;;;;4951078;28;20603;-73
2022/11/01 07:50:18;;;;;;;1.87;0.70;;;17.80;99.90;;;;;;4953898;28;20591;-74
2022/11/01 07:52:44;;;;;;;2.40;0.60;;;17.70;99.90;;;;;;4953189;28;20958;-73
2022/11/01 07:55:10;;;;;;;1.93;0.50;;;17.70;99.90;;;;;;4948860;29;20595;-74
2022/11/01 07:57:37;;;;;;;2.73;0.60;;;17.70;99.90;;;;;;4932358;29;20596;-73
2022/11/01 08:00:04;;;;;;;2.23;0.70;;;17.70;99.90;;;;;;4960459;28;20246;-73
2022/11/01 08:02:38;;;;;;;2.13;0.60;;;17.70;99.90;;;;;;4957653;28;20624;-73
2022/11/01 08:05:04;;;;;;;3.13;0.60;;;17.70;99.90;;;;;;4956040;28;20592;-73
2022/11/01 08:07:32;;;;;;;2.50;0.63;;;17.60;99.90;;;;;;4947765;29;20180;-73
2022/11/01 08:09:58;;;;;;;2.80;0.83;;;17.70;99.90;;;;;;4952619;29;20615;-73
2022/11/01 08:12:23;;;;;;;3.60;0.70;;;17.70;99.90;;;;;;4928604;29;20723;-73
2022/11/01 08:14:49;;;;;;;4.70;0.77;;;17.70;99.90;;;;;;4936286;29;20580;-73
2022/11/01 08:17:15;;;;;;;2.63;0.80;;;17.70;99.90;;;;;;4936310;29;20180;-73
2022/11/01 08:19:40;;;;;;;3.53;1.00;;;17.70;99.90;;;;;;4947458;29;20260;-73
2022/11/01 08:22:06;;;;;;;3.50;0.77;;;17.70;99.90;;;;;;4933862;29;20602;-74
2022/11/01 08:24:32;;;;;;;4.43;0.90;;;17.80;99.90;;;;;;4934395;29;20256;-73
2022/11/01 08:26:58;;;;;;;3.90;1.17;;;17.80;99.90;;;;;;4944990;28;20973;-74
2022/11/01 08:29:24;;;;;;;3.73;0.87;;;17.80;99.90;;;;;;4951574;29;20262;-74
2022/11/01 08:31:49;;;;;;;5.23;0.90;;;17.80;99.90;;;;;;4951920;29;20676;-74
2022/11/01 08:34:15;;;;;;;5.73;0.90;;;17.90;99.90;;;;;;4952702;28;20644;-74
2022/11/01 08:36:41;;;;;;;6.40;1.07;;;17.90;99.90;;;;;;4953262;28;20160;-73
2022/11/01 08:39:06;;;;;;;2.83;0.77;;;17.90;99.90;;;;;;4956126;29;20326;-74
2022/11/01 08:41:32;;;;;;;3.63;0.90;;;18.00;99.90;;;;;;4956953;29;20184;-74
2022/11/01 08:43:58;;;;;;;4.33;0.80;;;18.10;99.90;;;;;;4957821;28;20703;-74
2022/11/01 08:46:24;;;;;;;5.80;1.07;;;18.10;99.90;;;;;;4944321;29;20181;-75
2022/11/01 08:48:55;;;;;;;3.97;1.13;;;18.30;99.90;;;;;;4920877;29;20177;-75
2022/11/01 08:51:25;;;;;;;6.77;1.40;;;18.60;99.90;;;;;;4920220;29;20260;-73
2022/11/01 08:53:56;;;;;;;6.90;1.27;;;19.10;99.90;;;;;;4937453;29;20601;-74
2022/11/01 08:56:26;;;;;;;2.53;0.80;;;19.80;99.90;;;;;;4954806;28;20596;-74
2022/11/01 08:58:53;;;;;;;2.37;0.90;;;20.60;99.90;;;;;;4956765;29;21121;-74
2022/11/01 09:01:20;;;;;;;3.00;1.53;;;21.60;99.90;;;;;;4935354;29;20671;-74
2022/11/01 09:03:46;;;;;;;3.77;1.10;;;22.40;99.90;;;;;;4956441;28;20603;-74
2022/11/01 09:06:13;;;;;;;3.20;0.93;;;23.20;99.90;;;;;;4939640;29;20591;-74
2022/11/01 09:08:38;;;;;;;6.07;0.90;;;23.90;99.90;;;;;;4956462;29;20599;-74
2022/11/01 09:11:05;;;;;;;4.30;0.73;;;24.70;99.90;;;;;;4956496;29;21001;-74
2022/11/01 09:13:32;;;;;;;3.40;0.80;;;25.40;99.90;;;;;;4956111;28;20597;-74
2022/11/01 09:15:57;;;;;;;1.97;0.80;;;26.10;99.90;;;;;;4956277;29;20599;-75
2022/11/01 09:18:23;;;;;;;2.80;1.00;;;26.60;99.10;;;;;;4928985;29;21159;-74
2022/11/01 09:20:55;;;;;;;2.30;1.13;;;27.30;98.40;;;;;;4937811;29;20228;-74
2022/11/01 09:23:21;;;;;;;3.33;0.77;;;28.00;95.30;;;;;;4919732;29;20663;-75
2022/11/01 09:25:47;;;;;;;5.20;1.00;;;28.60;95.30;;;;;;4937349;29;20576;-74
2022/11/01 09:28:13;;;;;;;2.97;0.77;;;29.10;93.30;;;;;;4949888;29;20598;-74
2022/11/01 09:30:39;;;;;;;4.60;1.30;;;29.50;91.40;;;;;;4954944;29;20205;-74
2022/11/01 09:33:08;;;;;;;2.57;0.70;;;29.90;90.40;;;;;;4953890;28;20623;-74
2022/11/01 09:35:34;;;;;;;3.30;0.90;;;30.20;87.90;;;;;;4942125;29;20634;-74
2022/11/01 09:38:02;;;;;;;3.00;0.80;;;30.50;85.00;;;;;;4952764;28;20623;-74
2022/11/01 09:40:36;;;;;;;2.87;0.80;;;30.70;81.80;;;;;;4960286;28;20589;-74
2022/11/01 09:43:05;;;;;;;2.97;1.30;;;30.90;79.60;;;;;;4921434;29;20637;-74
2022/11/01 09:45:33;;;;;;;4.53;1.57;;;31.00;77.70;;;;;;4950554;28;20606;-74
2022/11/01 09:48:02;;;;;;;3.13;0.90;;;31.20;76.20;;;;;;4942275;28;20603;-74
2022/11/01 09:50:33;;;;;;;4.40;1.20;;;31.30;73.50;;;;;;4959474;28;21162;-74
2022/11/01 09:53:01;;;;;;;4.43;0.90;;;31.40;71.70;;;;;;4953634;28;20622;-75
2022/11/01 09:55:50;;;;;;;4.77;0.80;;;31.50;70.30;;;;;;4958205;28;20594;-74
2022/11/01 09:58:43;;;;;;;2.67;1.07;;;31.40;64.80;;;;;;4922638;29;20601;-74
2022/11/01 10:01:44;;;;;;;3.70;1.00;;;31.20;66.20;;;;;;4957594;28;20614;-74
2022/11/01 10:04:28;;;;;;;2.40;0.77;;;31.00;66.50;;;;;;4931027;28;21022;-74
2022/11/01 10:07:12;;;;;;;3.07;1.03;;;30.90;64.20;;;;;;4950572;29;20596;-74
2022/11/01 10:09:53;;;;;;;2.90;0.90;;;30.80;64.10;;;;;;4938420;29;21193;-74
2022/11/01 10:12:34;;;;;;;3.97;0.90;;;30.60;64.80;;;;;;4931925;28;20649;-74
2022/11/01 10:15:09;;;;;;;2.30;0.80;;;30.50;61.30;;;;;;4956810;28;20582;-75
2022/11/01 10:17:48;;;;;;;1.97;0.60;;;30.30;61.90;;;;;;4971949;28;20602;-75
2022/11/01 10:20:14;;;;;;;2.50;0.80;;;30.10;61.00;;;;;;4965340;28;20622;-75
2022/11/01 10:22:46;;;;;;;2.53;0.70;;;30.00;62.10;;;;;;4954575;28;20690;-75
2022/11/01 10:25:27;;;;;;;3.70;0.90;;;29.90;61.30;;;;;;4938154;29;20577;-74
2022/11/01 10:27:58;;;;;;;2.80;1.00;;;29.70;60.00;;;;;;4955428;29;20577;-74
2022/11/01 10:30:26;;;;;;;2.63;0.70;;;29.60;60.40;;;;;;4921962;29;20574;-75
2022/11/01 10:33:12;;;;;;;2.37;0.90;;;29.40;60.50;;;;;;4956015;28;20608;-75
2022/11/01 10:35:43;;;;;;;2.30;0.90;;;29.10;59.70;;;;;;4932019;29;20681;-75
2022/11/01 10:38:18;;;;;;;4.27;1.17;;;28.70;59.20;;;;;;4934744;29;20937;-75
2022/11/01 10:41:04;;;;;;;4.27;0.90;;;28.30;58.40;;;;;;4957988;28;20583;-75
2022/11/01 10:43:34;;;;;;;4.00;0.73;;;27.70;57.90;;;;;;4930950;29;20638;-74
2022/11/01 10:46:02;;;;;;;3.30;0.80;;;27.20;58.70;;;;;;4968323;28;20579;-74
2022/11/01 10:48:32;;;;;;;4.43;0.80;;;26.70;58.70;;;;;;4945394;29;20585;-74
2022/11/01 10:51:02;;;;;;;1.60;0.60;;;26.10;57.90;;;;;;4918496;29;20620;-74
2022/11/01 10:53:32;;;;;;;3.67;0.80;;;25.60;58.20;;;;;;4937716;29;20616;-74
2022/11/01 10:56:04;;;;;;;3.70;0.73;;;25.10;58.20;;;;;;4965401;28;21059;-74
2022/11/01 10:58:39;;;;;;;2.30;0.80;;;24.70;58.80;;;;;;4956642;28;20585;-74
2022/11/01 11:01:14;;;;;;;4.40;0.77;;;24.20;58.90;;;;;;4969905;28;20571;-74
2022/11/01 11:03:41;;;;;;;3.47;0.67;;;23.90;58.90;;;;;;4959277;28;20651;-74
2022/11/01 11:06:14;;;;;;;3.30;0.70;;;23.50;59.20;;;;;;4955978;28;20575;-75
2022/11/01 11:08:43;;;;;;;5.57;0.70;;;23.10;59.30;;;;;;4956606;28;20587;-74
2022/11/01 11:11:15;;;;;;;3.27;0.80;;;22.80;59.50;;;;;;5000372;23;20668;-75
2022/11/01 11:13:45;;;;;;;4.17;0.60;;;22.50;60.50;;;;;;5012659;28;20585;-76
2022/11/01 11:16:37;;;;;;;2.80;0.77;;;22.30;60.00;;;;;;5007179;28;21212;-75
2022/11/01 11:19:18;;;;;;;2.77;0.70;;;22.00;60.50;;;;;;4978040;28;20957;-76
2022/11/01 11:21:47;;;;;;;2.63;1.07;;;21.80;60.60;;;;;;4992731;28;20631;-74
2022/11/01 11:24:22;;;;;;;4.80;0.93;;;21.60;61.00;;;;;;4991493;28;20566;-75
2022/11/01 11:26:55;;;;;;;3.10;0.83;;;21.40;61.40;;;;;;4990774;28;20574;-75
2022/11/01 11:29:34;;;;;;;3.47;0.80;;;21.30;61.60;;;;;;4990123;28;20620;-75
2022/11/01 11:32:07;;;;;;;3.40;1.10;;;21.20;62.00;;;;;;4974514;28;20738;-75
2022/11/01 11:34:35;;;;;;;4.07;1.00;;;21.00;62.10;;;;;;4995224;28;20582;-75
2022/11/01 11:37:03;;;;;;;3.17;0.80;;;20.90;62.50;;;;;;4992396;28;20562;-75
2022/11/01 11:39:34;;;;;;;2.83;2.17;;;20.80;62.90;;;;;;4992875;28;21147;-75
2022/11/01 11:42:26;;;;;;;3.40;0.70;;;20.70;63.30;;;;;;5000199;28;20614;-76
2022/11/01 11:45:29;;;;;;;3.07;1.33;;;20.60;63.90;;;;;;5011459;28;20616;-75
2022/11/01 11:47:57;;;;;;;4.50;1.30;;;20.60;64.50;;;;;;4970528;28;20640;-75
2022/11/01 11:50:25;;;;;;;2.50;0.70;;;20.50;64.60;;;;;;4992809;28;20577;-75
2022/11/01 11:52:57;;;;;;;4.03;1.03;;;20.50;65.80;;;;;;4994649;28;20620;-75
2022/11/01 11:55:46;;;;;;;3.50;0.80;;;20.50;65.30;;;;;;5000614;28;20639;-75
2022/11/01 11:58:20;;;;;;;4.10;0.80;;;20.40;65.40;;;;;;4996570;28;20582;-75
2022/11/01 12:00:49;;;;;;;6.10;1.40;;;20.40;65.20;;;;;;4996936;28;20675;-74
2022/11/01 12:03:16;;;;;;;4.37;1.00;;;20.40;65.50;;;;;;4998589;28;20566;-74
2022/11/01 12:06:00;;;;;;;4.67;1.00;;;20.40;65.70;;;;;;4995421;28;20597;-74
2022/11/01 12:08:48;;;;;;;5.50;1.90;;;20.30;65.90;;;;;;4993742;28;20667;-75
2022/11/01 12:11:15;;;;;;;4.70;1.33;;;20.30;66.10;;;;;;5000833;28;20685;-74
2022/11/01 12:14:00;;;;;;;4.73;1.60;;;20.30;66.40;;;;;;5004990;28;20931;-74
2022/11/01 12:16:26;;;;;;;5.10;1.20;;;20.20;66.50;;;;;;4977923;28;21006;-74
2022/11/01 12:18:58;;;;;;;3.50;0.80;;;20.20;66.60;;;;;;4994025;28;20702;-74
2022/11/01 12:21:35;;;;;;;4.37;0.90;;;20.20;66.60;;;;;;4983741;28;20626;-74
2022/11/01 12:24:20;;;;;;;2.77;1.00;;;20.20;66.80;;;;;;4997393;28;20665;-74
2022/11/01 12:26:48;;;;;;;3.97;1.07;;;20.10;66.90;;;;;;4990847;28;20606;-75
2022/11/01 12:29:28;;;;;;;2.30;0.80;;;20.10;67.00;;;;;;4992952;28;20589;-75
2022/11/01 12:32:00;;;;;;;2.73;0.80;;;20.10;67.30;;;;;;5003147;28;20648;-75
2022/11/01 12:34:33;;;;;;;3.27;1.10;;;20.10;67.40;;;;;;4988055;28;20625;-75
2022/11/01 12:37:12;;;;;;;2.60;0.80;;;20.00;67.20;;;;;;4973706;28;20982;-75
2022/11/01 12:40:05;;;;;;;4.30;1.07;;;20.00;67.40;;;;;;4992518;28;20581;-75
2022/11/01 12:42:48;;;;;;;1.70;0.70;;;19.90;67.50;;;;;;4988259;28;21235;-75
2022/11/01 12:45:44;;;;;;;4.57;0.73;;;19.90;67.70;;;;;;4992097;28;20566;-76
2022/11/01 12:48:20;;;;;;;2.10;0.70;;;19.90;67.80;;;;;;4991786;28;21139;-75
2022/11/01 12:50:58;;;;;;;2.90;0.60;;;19.90;67.90;;;;;;4991985;28;20760;-74
2022/11/01 12:53:43;;;;;;;5.60;1.67;;;19.90;68.20;;;;;;4977609;28;21120;-73
2022/11/01 12:56:11;;;;;;;4.77;0.80;;;19.90;68.40;;;;;;4957771;28;20589;-76
2022/11/01 12:58:37;;;;;;;2.87;0.77;;;19.80;68.50;;;;;;4971569;28;20602;-75
2022/11/01 13:01:10;;;;;;;6.43;1.30;;;19.90;68.70;;;;;;4955009;28;20617;-75
2022/11/01 13:03:45;;;;;;;3.30;1.17;;;19.80;68.80;;;;;;4970723;28;20580;-75
2022/11/01 13:06:41;;;;;;;3.37;1.00;;;19.80;68.90;;;;;;4972485;28;20570;-75
2022/11/01 13:09:36;;;;;;;4.47;0.93;;;19.80;69.30;;;;;;5000308;28;20618;-74
2022/11/01 13:12:32;;;;;;;3.20;0.80;;;19.80;69.40;;;;;;4984507;28;20764;-75
2022/11/01 13:15:03;;;;;;;4.63;1.43;;;19.80;69.50;;;;;;4994732;28;20618;-75